sensor_id;sensor_type;location;lat;lon;timestamp;P1;durP1;ratioP1;P2;durP2;ratioP2
22040;SDS011;11184;52.444;13.578;2023-02-24T00:00:34;80.25;;;29.85;;
22040;SDS011;11184;52.444;13.578;2023-02-24T00:03:21;70.07;;;31.10;;
22040;SDS011;11184;52.444;13.578;2023-02-24T00:06:05;78.57;;;31.17;;
22040;SDS011;11184;52.444;13.578;2023-02-24T00:08:54;72.45;;;28.15;;
22040;SDS011;11184;52.444;13.578;2023-02-24T00:11:40;68.65;;;28.27;;
22040;SDS011;11184;52.444;13.578;2023-02-24T00:14:26;67.00;;;29.65;;
22040;SDS011;11184;52.444;13.578;2023-02-24T00:17:11;71.00;;;29.33;;
22040;SDS011;11184;52.444;13.578;2023-02-24T00:19:59;70.07;;;28.73;;
22040;SDS011;11184;52.444;13.578;2023-02-24T00:22:44;74.50;;;27.15;;
22040;SDS011;11184;52.444;13.578;2023-02-24T00:25:29;67.93;;;28.50;;
22040;SDS011;11184;52.444;13.578;2023-02-24T00:28:14;70.55;;;26.67;;
22040;SDS011;11184;52.444;13.578;2023-02-24T00:31:05;67.97;;;25.40;;
22040;SDS011;11184;52.444;13.578;2023-02-24T00:33:51;66.50;;;23.75;;
22040;SDS011;11184;52.444;13.578;2023-02-24T00:36:39;63.88;;;25.50;;
22040;SDS011;11184;52.444;13.578;2023-02-24T00:39:24;71.10;;;27.92;;
22040;SDS011;11184;52.444;13.578;2023-02-24T00:42:17;66.07;;;25.45;;
22040;SDS011;11184;52.444;13.578;2023-02-24T00:45:02;58.65;;;24.15;;
22040;SDS011;11184;52.444;13.578;2023-02-24T00:47:52;67.82;;;27.13;;
22040;SDS011;11184;52.444;13.578;2023-02-24T00:50:39;59.42;;;24.45;;
22040;SDS011;11184;52.444;13.578;2023-02-24T00:53:24;56.80;;;24.63;;
22040;SDS011;11184;52.444;13.578;2023-02-24T00:56:11;54.88;;;22.02;;
22040;SDS011;11184;52.444;13.578;2023-02-24T00:58:57;52.58;;;22.30;;
22040;SDS011;11184;52.444;13.578;2023-02-24T01:01:42;54.47;;;22.30;;
22040;SDS011;11184;52.444;13.578;2023-02-24T01:04:27;49.92;;;22.60;;
22040;SDS011;11184;52.444;13.578;2023-02-24T01:07:12;61.15;;;23.45;;
22040;SDS011;11184;52.444;13.578;2023-02-24T01:09:57;51.63;;;21.90;;
22040;SDS011;11184;52.444;13.578;2023-02-24T01:12:44;56.00;;;23.23;;
22040;SDS011;11184;52.444;13.578;2023-02-24T01:15:32;38.72;;;17.83;;
22040;SDS011;11184;52.444;13.578;2023-02-24T01:18:16;39.30;;;16.52;;
22040;SDS011;11184;52.444;13.578;2023-02-24T01:21:01;34.08;;;14.27;;
22040;SDS011;11184;52.444;13.578;2023-02-24T01:23:47;36.90;;;14.10;;
22040;SDS011;11184;52.444;13.578;2023-02-24T01:26:32;39.20;;;16.08;;
22040;SDS011;11184;52.444;13.578;2023-02-24T01:29:17;31.67;;;13.82;;
22040;SDS011;11184;52.444;13.578;2023-02-24T01:32:01;32.90;;;14.30;;
22040;SDS011;11184;52.444;13.578;2023-02-24T01:34:46;32.83;;;14.50;;
22040;SDS011;11184;52.444;13.578;2023-02-24T01:37:31;29.40;;;13.35;;
22040;SDS011;11184;52.444;13.578;2023-02-24T01:40:16;31.80;;;11.88;;
22040;SDS011;11184;52.444;13.578;2023-02-24T01:43:03;31.17;;;12.60;;
22040;SDS011;11184;52.444;13.578;2023-02-24T01:45:52;29.33;;;14.27;;
22040;SDS011;11184;52.444;13.578;2023-02-24T01:48:37;29.85;;;11.82;;
22040;SDS011;11184;52.444;13.578;2023-02-24T01:51:22;31.88;;;11.48;;
22040;SDS011;11184;52.444;13.578;2023-02-24T01:54:10;12.80;;;8.77;;
22040;SDS011;11184;52.444;13.578;2023-02-24T01:56:55;25.02;;;11.63;;
22040;SDS011;11184;52.444;13.578;2023-02-24T01:59:41;21.83;;;8.77;;
22040;SDS011;11184;52.444;13.578;2023-02-24T02:02:27;24.10;;;8.73;;
22040;SDS011;11184;52.444;13.578;2023-02-24T02:05:12;15.55;;;8.82;;
22040;SDS011;11184;52.444;13.578;2023-02-24T02:07:57;18.23;;;7.78;;
22040;SDS011;11184;52.444;13.578;2023-02-24T02:10:43;24.58;;;7.68;;
22040;SDS011;11184;52.444;13.578;2023-02-24T02:13:28;30.17;;;8.43;;
22040;SDS011;11184;52.444;13.578;2023-02-24T02:16:17;23.48;;;7.18;;
22040;SDS011;11184;52.444;13.578;2023-02-24T02:21:53;22.17;;;7.90;;
22040;SDS011;11184;52.444;13.578;2023-02-24T02:24:50;33.40;;;6.95;;
22040;SDS011;11184;52.444;13.578;2023-02-24T02:27:53;18.80;;;6.90;;
22040;SDS011;11184;52.444;13.578;2023-02-24T02:31:01;30.25;;;8.88;;
22040;SDS011;11184;52.444;13.578;2023-02-24T02:34:02;31.13;;;8.13;;
22040;SDS011;11184;52.444;13.578;2023-02-24T02:36:55;21.20;;;7.05;;
22040;SDS011;11184;52.444;13.578;2023-02-24T02:39:45;12.95;;;5.13;;
22040;SDS011;11184;52.444;13.578;2023-02-24T02:42:37;28.35;;;5.22;;
22040;SDS011;11184;52.444;13.578;2023-02-24T02:45:27;19.23;;;4.50;;
22040;SDS011;11184;52.444;13.578;2023-02-24T02:48:17;31.48;;;6.32;;
22040;SDS011;11184;52.444;13.578;2023-02-24T02:51:07;26.02;;;4.38;;
22040;SDS011;11184;52.444;13.578;2023-02-24T02:56:45;18.42;;;4.72;;
22040;SDS011;11184;52.444;13.578;2023-02-24T02:59:33;13.50;;;4.25;;
22040;SDS011;11184;52.444;13.578;2023-02-24T03:02:20;16.92;;;4.18;;
22040;SDS011;11184;52.444;13.578;2023-02-24T03:05:10;19.65;;;4.35;;
22040;SDS011;11184;52.444;13.578;2023-02-24T03:08:00;9.88;;;3.88;;
22040;SDS011;11184;52.444;13.578;2023-02-24T03:13:16;11.63;;;4.95;;
22040;SDS011;11184;52.444;13.578;2023-02-24T03:16:02;19.48;;;4.13;;
22040;SDS011;11184;52.444;13.578;2023-02-24T03:18:49;20.83;;;3.72;;
22040;SDS011;11184;52.444;13.578;2023-02-24T03:21:37;8.23;;;2.97;;
22040;SDS011;11184;52.444;13.578;2023-02-24T03:24:23;15.73;;;2.75;;
22040;SDS011;11184;52.444;13.578;2023-02-24T03:27:09;16.17;;;4.75;;
22040;SDS011;11184;52.444;13.578;2023-02-24T03:29:59;12.25;;;3.40;;
22040;SDS011;11184;52.444;13.578;2023-02-24T03:32:55;19.30;;;4.55;;
22040;SDS011;11184;52.444;13.578;2023-02-24T03:35:41;19.83;;;3.53;;
22040;SDS011;11184;52.444;13.578;2023-02-24T03:38:29;8.35;;;2.75;;
22040;SDS011;11184;52.444;13.578;2023-02-24T03:41:16;7.75;;;2.78;;
22040;SDS011;11184;52.444;13.578;2023-02-24T03:44:00;14.27;;;3.05;;
22040;SDS011;11184;52.444;13.578;2023-02-24T03:46:46;3.95;;;2.47;;
22040;SDS011;11184;52.444;13.578;2023-02-24T03:49:31;15.25;;;3.55;;
22040;SDS011;11184;52.444;13.578;2023-02-24T03:58:15;15.43;;;4.00;;
22040;SDS011;11184;52.444;13.578;2023-02-24T04:01:15;10.27;;;3.08;;
22040;SDS011;11184;52.444;13.578;2023-02-24T04:04:11;9.50;;;4.25;;
22040;SDS011;11184;52.444;13.578;2023-02-24T04:06:58;13.48;;;3.33;;
22040;SDS011;11184;52.444;13.578;2023-02-24T04:09:47;13.35;;;3.22;;
22040;SDS011;11184;52.444;13.578;2023-02-24T04:12:36;10.48;;;3.03;;
22040;SDS011;11184;52.444;13.578;2023-02-24T04:15:26;19.65;;;3.60;;
22040;SDS011;11184;52.444;13.578;2023-02-24T04:18:17;18.90;;;4.30;;
22040;SDS011;11184;52.444;13.578;2023-02-24T04:21:04;10.80;;;2.47;;
22040;SDS011;11184;52.444;13.578;2023-02-24T04:23:48;14.50;;;2.95;;
22040;SDS011;11184;52.444;13.578;2023-02-24T04:26:33;17.73;;;3.08;;
22040;SDS011;11184;52.444;13.578;2023-02-24T04:29:20;11.65;;;4.22;;
22040;SDS011;11184;52.444;13.578;2023-02-24T04:32:07;15.40;;;4.35;;
22040;SDS011;11184;52.444;13.578;2023-02-24T04:34:59;11.50;;;3.97;;
22040;SDS011;11184;52.444;13.578;2023-02-24T04:37:44;10.30;;;3.38;;
22040;SDS011;11184;52.444;13.578;2023-02-24T04:40:29;9.27;;;3.05;;
22040;SDS011;11184;52.444;13.578;2023-02-24T04:43:14;13.10;;;4.45;;
22040;SDS011;11184;52.444;13.578;2023-02-24T04:45:59;9.00;;;3.97;;
22040;SDS011;11184;52.444;13.578;2023-02-24T04:48:48;15.70;;;3.53;;
22040;SDS011;11184;52.444;13.578;2023-02-24T04:51:33;6.32;;;3.88;;
22040;SDS011;11184;52.444;13.578;2023-02-24T04:54:19;18.40;;;5.05;;
22040;SDS011;11184;52.444;13.578;2023-02-24T04:57:04;20.83;;;4.97;;
22040;SDS011;11184;52.444;13.578;2023-02-24T04:59:49;12.88;;;3.83;;
22040;SDS011;11184;52.444;13.578;2023-02-24T05:02:36;14.95;;;3.78;;
22040;SDS011;11184;52.444;13.578;2023-02-24T05:05:21;16.60;;;5.45;;
22040;SDS011;11184;52.444;13.578;2023-02-24T05:08:12;8.68;;;3.92;;
22040;SDS011;11184;52.444;13.578;2023-02-24T05:10:58;13.48;;;3.72;;
22040;SDS011;11184;52.444;13.578;2023-02-24T05:13:46;19.85;;;4.28;;
22040;SDS011;11184;52.444;13.578;2023-02-24T05:16:31;13.25;;;3.53;;
22040;SDS011;11184;52.444;13.578;2023-02-24T05:19:16;8.77;;;3.00;;
22040;SDS011;11184;52.444;13.578;2023-02-24T05:22:20;9.48;;;3.42;;
22040;SDS011;11184;52.444;13.578;2023-02-24T05:25:05;9.50;;;3.22;;
22040;SDS011;11184;52.444;13.578;2023-02-24T05:27:50;9.85;;;3.58;;
22040;SDS011;11184;52.444;13.578;2023-02-24T05:30:34;18.25;;;4.50;;
22040;SDS011;11184;52.444;13.578;2023-02-24T05:33:19;10.48;;;3.40;;
22040;SDS011;11184;52.444;13.578;2023-02-24T05:36:04;14.35;;;2.10;;
22040;SDS011;11184;52.444;13.578;2023-02-24T05:38:51;13.43;;;3.03;;
22040;SDS011;11184;52.444;13.578;2023-02-24T05:41:49;11.68;;;2.97;;
22040;SDS011;11184;52.444;13.578;2023-02-24T05:44:37;12.80;;;3.33;;
22040;SDS011;11184;52.444;13.578;2023-02-24T05:47:21;11.45;;;3.05;;
22040;SDS011;11184;52.444;13.578;2023-02-24T05:50:07;10.32;;;2.55;;
22040;SDS011;11184;52.444;13.578;2023-02-24T05:52:53;4.30;;;2.50;;
22040;SDS011;11184;52.444;13.578;2023-02-24T05:55:38;12.68;;;2.42;;
22040;SDS011;11184;52.444;13.578;2023-02-24T05:58:23;6.63;;;2.65;;
22040;SDS011;11184;52.444;13.578;2023-02-24T06:01:11;5.68;;;2.03;;
22040;SDS011;11184;52.444;13.578;2023-02-24T06:04:00;12.63;;;2.67;;
22040;SDS011;11184;52.444;13.578;2023-02-24T06:06:51;5.05;;;1.90;;
22040;SDS011;11184;52.444;13.578;2023-02-24T06:09:35;11.50;;;3.30;;
22040;SDS011;11184;52.444;13.578;2023-02-24T06:12:29;22.35;;;2.65;;
22040;SDS011;11184;52.444;13.578;2023-02-24T06:15:14;7.55;;;2.28;;
22040;SDS011;11184;52.444;13.578;2023-02-24T06:17:59;7.95;;;2.50;;
22040;SDS011;11184;52.444;13.578;2023-02-24T06:20:44;9.40;;;1.80;;
22040;SDS011;11184;52.444;13.578;2023-02-24T06:23:34;6.00;;;1.95;;
22040;SDS011;11184;52.444;13.578;2023-02-24T06:26:18;10.73;;;3.08;;
22040;SDS011;11184;52.444;13.578;2023-02-24T06:29:04;6.05;;;1.92;;
22040;SDS011;11184;52.444;13.578;2023-02-24T06:31:49;7.20;;;1.63;;
22040;SDS011;11184;52.444;13.578;2023-02-24T06:34:34;4.50;;;1.02;;
22040;SDS011;11184;52.444;13.578;2023-02-24T06:37:19;5.28;;;1.73;;
22040;SDS011;11184;52.444;13.578;2023-02-24T06:40:05;11.32;;;1.73;;
22040;SDS011;11184;52.444;13.578;2023-02-24T06:42:58;5.32;;;1.67;;
22040;SDS011;11184;52.444;13.578;2023-02-24T06:45:42;5.28;;;1.60;;
22040;SDS011;11184;52.444;13.578;2023-02-24T06:48:27;8.00;;;1.92;;
22040;SDS011;11184;52.444;13.578;2023-02-24T06:51:13;12.07;;;2.92;;
22040;SDS011;11184;52.444;13.578;2023-02-24T06:53:58;10.50;;;1.75;;
22040;SDS011;11184;52.444;13.578;2023-02-24T06:56:43;4.47;;;1.45;;
22040;SDS011;11184;52.444;13.578;2023-02-24T06:59:28;8.73;;;1.92;;
22040;SDS011;11184;52.444;13.578;2023-02-24T07:02:13;5.00;;;1.90;;
22040;SDS011;11184;52.444;13.578;2023-02-24T07:05:00;3.72;;;1.48;;
22040;SDS011;11184;52.444;13.578;2023-02-24T07:07:44;5.53;;;1.50;;
22040;SDS011;11184;52.444;13.578;2023-02-24T07:10:29;7.93;;;1.83;;
22040;SDS011;11184;52.444;13.578;2023-02-24T07:13:15;9.15;;;1.55;;
22040;SDS011;11184;52.444;13.578;2023-02-24T07:16:00;8.60;;;1.73;;
22040;SDS011;11184;52.444;13.578;2023-02-24T07:18:55;5.78;;;1.73;;
22040;SDS011;11184;52.444;13.578;2023-02-24T07:21:41;6.78;;;2.15;;
22040;SDS011;11184;52.444;13.578;2023-02-24T07:24:30;7.80;;;2.60;;
22040;SDS011;11184;52.444;13.578;2023-02-24T07:27:23;18.85;;;2.42;;
22040;SDS011;11184;52.444;13.578;2023-02-24T07:30:10;3.40;;;1.65;;
22040;SDS011;11184;52.444;13.578;2023-02-24T07:32:55;4.97;;;2.08;;
22040;SDS011;11184;52.444;13.578;2023-02-24T07:35:48;7.15;;;2.35;;
22040;SDS011;11184;52.444;13.578;2023-02-24T07:38:36;8.18;;;1.98;;
22040;SDS011;11184;52.444;13.578;2023-02-24T07:41:21;6.80;;;1.77;;
22040;SDS011;11184;52.444;13.578;2023-02-24T07:44:07;4.18;;;1.50;;
22040;SDS011;11184;52.444;13.578;2023-02-24T07:46:53;10.32;;;1.77;;
22040;SDS011;11184;52.444;13.578;2023-02-24T07:49:39;5.82;;;2.42;;
22040;SDS011;11184;52.444;13.578;2023-02-24T07:52:23;4.22;;;2.20;;
22040;SDS011;11184;52.444;13.578;2023-02-24T07:55:09;5.15;;;1.30;;
22040;SDS011;11184;52.444;13.578;2023-02-24T07:57:53;5.70;;;1.60;;
22040;SDS011;11184;52.444;13.578;2023-02-24T08:00:39;6.78;;;1.50;;
22040;SDS011;11184;52.444;13.578;2023-02-24T08:03:42;6.15;;;1.85;;
22040;SDS011;11184;52.444;13.578;2023-02-24T08:06:31;9.50;;;2.47;;
22040;SDS011;11184;52.444;13.578;2023-02-24T08:09:37;6.18;;;2.13;;
22040;SDS011;11184;52.444;13.578;2023-02-24T08:12:27;7.97;;;2.22;;
22040;SDS011;11184;52.444;13.578;2023-02-24T08:15:12;10.18;;;2.08;;
22040;SDS011;11184;52.444;13.578;2023-02-24T08:18:00;9.50;;;2.35;;
22040;SDS011;11184;52.444;13.578;2023-02-24T08:20:44;22.13;;;2.80;;
22040;SDS011;11184;52.444;13.578;2023-02-24T08:23:35;9.23;;;1.77;;
22040;SDS011;11184;52.444;13.578;2023-02-24T08:26:27;5.10;;;2.13;;
22040;SDS011;11184;52.444;13.578;2023-02-24T08:29:14;5.70;;;2.63;;
22040;SDS011;11184;52.444;13.578;2023-02-24T08:32:02;6.13;;;2.30;;
22040;SDS011;11184;52.444;13.578;2023-02-24T08:34:47;10.70;;;3.22;;
22040;SDS011;11184;52.444;13.578;2023-02-24T08:37:32;15.18;;;6.30;;
22040;SDS011;11184;52.444;13.578;2023-02-24T08:40:23;11.38;;;3.28;;
22040;SDS011;11184;52.444;13.578;2023-02-24T08:43:17;8.55;;;3.15;;
22040;SDS011;11184;52.444;13.578;2023-02-24T08:49:00;4.30;;;1.60;;
22040;SDS011;11184;52.444;13.578;2023-02-24T08:51:46;5.97;;;2.25;;
22040;SDS011;11184;52.444;13.578;2023-02-24T08:54:30;12.70;;;4.07;;
22040;SDS011;11184;52.444;13.578;2023-02-24T08:57:16;9.25;;;2.88;;
22040;SDS011;11184;52.444;13.578;2023-02-24T09:00:00;5.25;;;2.75;;
22040;SDS011;11184;52.444;13.578;2023-02-24T09:02:49;8.02;;;4.13;;
22040;SDS011;11184;52.444;13.578;2023-02-24T09:05:38;3.92;;;1.95;;
22040;SDS011;11184;52.444;13.578;2023-02-24T09:08:23;7.13;;;2.55;;
22040;SDS011;11184;52.444;13.578;2023-02-24T09:13:43;9.45;;;3.35;;
22040;SDS011;11184;52.444;13.578;2023-02-24T09:16:34;5.00;;;2.40;;
22040;SDS011;11184;52.444;13.578;2023-02-24T09:19:44;16.63;;;3.95;;
22040;SDS011;11184;52.444;13.578;2023-02-24T09:22:31;7.50;;;3.35;;
22040;SDS011;11184;52.444;13.578;2023-02-24T09:25:24;6.57;;;2.28;;
22040;SDS011;11184;52.444;13.578;2023-02-24T09:28:23;4.60;;;2.83;;
22040;SDS011;11184;52.444;13.578;2023-02-24T09:31:08;6.55;;;2.67;;
22040;SDS011;11184;52.444;13.578;2023-02-24T09:33:53;9.05;;;2.30;;
22040;SDS011;11184;52.444;13.578;2023-02-24T09:36:37;10.05;;;2.30;;
22040;SDS011;11184;52.444;13.578;2023-02-24T09:39:28;9.05;;;2.72;;
22040;SDS011;11184;52.444;13.578;2023-02-24T09:42:13;6.05;;;2.65;;
22040;SDS011;11184;52.444;13.578;2023-02-24T09:45:03;6.78;;;2.05;;
22040;SDS011;11184;52.444;13.578;2023-02-24T09:47:53;10.82;;;2.20;;
22040;SDS011;11184;52.444;13.578;2023-02-24T09:50:38;10.20;;;2.10;;
22040;SDS011;11184;52.444;13.578;2023-02-24T09:53:30;3.13;;;1.70;;
22040;SDS011;11184;52.444;13.578;2023-02-24T09:56:35;5.80;;;2.33;;
22040;SDS011;11184;52.444;13.578;2023-02-24T09:59:44;7.85;;;2.17;;
22040;SDS011;11184;52.444;13.578;2023-02-24T10:02:46;4.85;;;1.85;;
22040;SDS011;11184;52.444;13.578;2023-02-24T10:05:44;10.30;;;2.63;;
22040;SDS011;11184;52.444;13.578;2023-02-24T10:08:32;5.95;;;1.73;;
22040;SDS011;11184;52.444;13.578;2023-02-24T10:11:18;6.15;;;1.80;;
22040;SDS011;11184;52.444;13.578;2023-02-24T10:14:15;6.97;;;2.28;;
22040;SDS011;11184;52.444;13.578;2023-02-24T10:17:02;6.43;;;2.17;;
22040;SDS011;11184;52.444;13.578;2023-02-24T10:20:10;6.82;;;1.85;;
22040;SDS011;11184;52.444;13.578;2023-02-24T10:32:22;2.78;;;1.20;;
22040;SDS011;11184;52.444;13.578;2023-02-24T10:35:17;9.60;;;1.77;;
22040;SDS011;11184;52.444;13.578;2023-02-24T10:38:02;3.70;;;2.30;;
22040;SDS011;11184;52.444;13.578;2023-02-24T10:40:53;7.88;;;2.28;;
22040;SDS011;11184;52.444;13.578;2023-02-24T10:43:51;3.92;;;1.52;;
22040;SDS011;11184;52.444;13.578;2023-02-24T10:46:36;11.60;;;2.33;;
22040;SDS011;11184;52.444;13.578;2023-02-24T10:49:21;5.68;;;1.20;;
22040;SDS011;11184;52.444;13.578;2023-02-24T10:52:13;3.97;;;0.98;;
22040;SDS011;11184;52.444;13.578;2023-02-24T10:55:27;3.78;;;1.75;;
22040;SDS011;11184;52.444;13.578;2023-02-24T10:58:30;3.78;;;1.00;;
22040;SDS011;11184;52.444;13.578;2023-02-24T11:01:30;9.70;;;1.52;;
22040;SDS011;11184;52.444;13.578;2023-02-24T11:04:38;3.72;;;1.17;;
22040;SDS011;11184;52.444;13.578;2023-02-24T11:07:43;6.85;;;1.58;;
22040;SDS011;11184;52.444;13.578;2023-02-24T11:10:40;5.20;;;1.15;;
22040;SDS011;11184;52.444;13.578;2023-02-24T11:13:35;9.85;;;2.05;;
22040;SDS011;11184;52.444;13.578;2023-02-24T11:16:47;2.58;;;1.45;;
22040;SDS011;11184;52.444;13.578;2023-02-24T11:22:40;6.80;;;1.33;;
22040;SDS011;11184;52.444;13.578;2023-02-24T11:25:26;7.03;;;1.73;;
22040;SDS011;11184;52.444;13.578;2023-02-24T11:28:24;6.00;;;2.28;;
22040;SDS011;11184;52.444;13.578;2023-02-24T11:31:33;4.00;;;1.63;;
22040;SDS011;11184;52.444;13.578;2023-02-24T11:34:31;5.00;;;1.60;;
22040;SDS011;11184;52.444;13.578;2023-02-24T11:40:22;5.05;;;1.67;;
22040;SDS011;11184;52.444;13.578;2023-02-24T11:45:57;6.50;;;2.08;;
22040;SDS011;11184;52.444;13.578;2023-02-24T11:48:48;4.50;;;2.35;;
22040;SDS011;11184;52.444;13.578;2023-02-24T11:51:35;8.85;;;1.75;;
22040;SDS011;11184;52.444;13.578;2023-02-24T11:54:21;4.82;;;1.70;;
22040;SDS011;11184;52.444;13.578;2023-02-24T11:57:10;5.93;;;2.65;;
22040;SDS011;11184;52.444;13.578;2023-02-24T12:00:02;2.00;;;1.65;;
22040;SDS011;11184;52.444;13.578;2023-02-24T12:05:52;8.73;;;1.95;;
22040;SDS011;11184;52.444;13.578;2023-02-24T12:08:38;3.75;;;2.20;;
22040;SDS011;11184;52.444;13.578;2023-02-24T12:11:29;3.13;;;2.65;;
22040;SDS011;11184;52.444;13.578;2023-02-24T12:17:03;6.78;;;2.70;;
22040;SDS011;11184;52.444;13.578;2023-02-24T12:20:01;5.65;;;2.60;;
22040;SDS011;11184;52.444;13.578;2023-02-24T12:32:03;4.07;;;2.47;;
22040;SDS011;11184;52.444;13.578;2023-02-24T12:35:13;5.35;;;1.70;;
22040;SDS011;11184;52.444;13.578;2023-02-24T12:41:14;5.57;;;1.50;;
22040;SDS011;11184;52.444;13.578;2023-02-24T12:44:18;6.53;;;1.60;;
22040;SDS011;11184;52.444;13.578;2023-02-24T12:47:17;3.13;;;1.20;;
22040;SDS011;11184;52.444;13.578;2023-02-24T12:50:09;3.95;;;1.70;;
22040;SDS011;11184;52.444;13.578;2023-02-24T12:53:03;5.75;;;1.67;;
22040;SDS011;11184;52.444;13.578;2023-02-24T12:58:59;5.15;;;2.63;;
22040;SDS011;11184;52.444;13.578;2023-02-24T13:02:02;3.15;;;1.95;;
22040;SDS011;11184;52.444;13.578;2023-02-24T13:04:49;5.25;;;2.35;;
22040;SDS011;11184;52.444;13.578;2023-02-24T13:10:35;19.45;;;14.50;;
22040;SDS011;11184;52.444;13.578;2023-02-24T13:13:26;4.63;;;2.80;;
22040;SDS011;11184;52.444;13.578;2023-02-24T13:16:15;7.05;;;1.83;;
22040;SDS011;11184;52.444;13.578;2023-02-24T13:19:17;5.13;;;2.70;;
22040;SDS011;11184;52.444;13.578;2023-02-24T13:22:07;8.75;;;2.58;;
22040;SDS011;11184;52.444;13.578;2023-02-24T13:25:00;3.67;;;2.22;;
22040;SDS011;11184;52.444;13.578;2023-02-24T13:28:01;2.83;;;1.38;;
22040;SDS011;11184;52.444;13.578;2023-02-24T13:30:55;6.00;;;1.90;;
22040;SDS011;11184;52.444;13.578;2023-02-24T13:33:43;5.07;;;2.17;;
22040;SDS011;11184;52.444;13.578;2023-02-24T13:36:31;6.28;;;2.50;;
22040;SDS011;11184;52.444;13.578;2023-02-24T13:39:32;5.32;;;2.08;;
22040;SDS011;11184;52.444;13.578;2023-02-24T13:48:09;3.78;;;1.80;;
22040;SDS011;11184;52.444;13.578;2023-02-24T13:54:08;5.95;;;2.35;;
22040;SDS011;11184;52.444;13.578;2023-02-24T13:57:04;3.70;;;1.88;;
22040;SDS011;11184;52.444;13.578;2023-02-24T14:00:10;6.82;;;1.50;;
22040;SDS011;11184;52.444;13.578;2023-02-24T14:03:08;6.35;;;2.00;;
22040;SDS011;11184;52.444;13.578;2023-02-24T14:05:53;3.47;;;2.28;;
22040;SDS011;11184;52.444;13.578;2023-02-24T14:11:26;6.95;;;1.90;;
22040;SDS011;11184;52.444;13.578;2023-02-24T14:14:12;2.95;;;1.38;;
22040;SDS011;11184;52.444;13.578;2023-02-24T14:17:00;4.68;;;1.58;;
22040;SDS011;11184;52.444;13.578;2023-02-24T14:19:45;4.60;;;1.80;;
22040;SDS011;11184;52.444;13.578;2023-02-24T14:22:29;4.03;;;2.10;;
22040;SDS011;11184;52.444;13.578;2023-02-24T14:25:15;7.03;;;2.38;;
22040;SDS011;11184;52.444;13.578;2023-02-24T14:28:00;2.55;;;1.80;;
22040;SDS011;11184;52.444;13.578;2023-02-24T14:30:45;3.55;;;2.47;;
22040;SDS011;11184;52.444;13.578;2023-02-24T14:33:36;3.15;;;2.80;;
22040;SDS011;11184;52.444;13.578;2023-02-24T14:36:22;3.55;;;2.03;;
22040;SDS011;11184;52.444;13.578;2023-02-24T14:39:11;9.20;;;5.03;;
22040;SDS011;11184;52.444;13.578;2023-02-24T14:44:49;3.25;;;1.90;;
22040;SDS011;11184;52.444;13.578;2023-02-24T14:47:34;2.20;;;1.40;;
22040;SDS011;11184;52.444;13.578;2023-02-24T14:50:27;3.15;;;2.08;;
22040;SDS011;11184;52.444;13.578;2023-02-24T14:53:14;2.15;;;1.60;;
22040;SDS011;11184;52.444;13.578;2023-02-24T14:56:01;2.88;;;1.92;;
22040;SDS011;11184;52.444;13.578;2023-02-24T14:58:49;4.90;;;1.90;;
22040;SDS011;11184;52.444;13.578;2023-02-24T15:01:35;5.22;;;1.40;;
22040;SDS011;11184;52.444;13.578;2023-02-24T15:04:36;2.22;;;1.48;;
22040;SDS011;11184;52.444;13.578;2023-02-24T15:07:22;3.60;;;1.48;;
22040;SDS011;11184;52.444;13.578;2023-02-24T15:10:16;3.22;;;2.63;;
22040;SDS011;11184;52.444;13.578;2023-02-24T15:13:09;3.55;;;2.00;;
22040;SDS011;11184;52.444;13.578;2023-02-24T15:15:56;2.95;;;2.58;;
22040;SDS011;11184;52.444;13.578;2023-02-24T15:18:53;3.83;;;2.00;;
22040;SDS011;11184;52.444;13.578;2023-02-24T15:21:39;3.20;;;2.35;;
22040;SDS011;11184;52.444;13.578;2023-02-24T15:24:29;6.20;;;5.35;;
22040;SDS011;11184;52.444;13.578;2023-02-24T15:30:00;5.97;;;4.60;;
22040;SDS011;11184;52.444;13.578;2023-02-24T15:32:45;6.40;;;4.53;;
22040;SDS011;11184;52.444;13.578;2023-02-24T15:35:30;5.18;;;3.47;;
22040;SDS011;11184;52.444;13.578;2023-02-24T15:38:23;6.50;;;4.80;;
22040;SDS011;11184;52.444;13.578;2023-02-24T15:41:08;5.22;;;3.33;;
22040;SDS011;11184;52.444;13.578;2023-02-24T15:43:53;6.25;;;4.38;;
22040;SDS011;11184;52.444;13.578;2023-02-24T15:46:38;5.88;;;4.68;;
22040;SDS011;11184;52.444;13.578;2023-02-24T15:49:23;4.53;;;2.85;;
22040;SDS011;11184;52.444;13.578;2023-02-24T15:52:08;4.07;;;3.10;;
22040;SDS011;11184;52.444;13.578;2023-02-24T15:54:53;4.72;;;3.55;;
22040;SDS011;11184;52.444;13.578;2023-02-24T15:57:39;7.10;;;5.35;;
22040;SDS011;11184;52.444;13.578;2023-02-24T16:00:23;4.45;;;3.85;;
22040;SDS011;11184;52.444;13.578;2023-02-24T16:03:08;7.82;;;6.20;;
22040;SDS011;11184;52.444;13.578;2023-02-24T16:05:52;4.25;;;3.50;;
22040;SDS011;11184;52.444;13.578;2023-02-24T16:08:37;10.82;;;9.45;;
22040;SDS011;11184;52.444;13.578;2023-02-24T16:11:27;21.13;;;13.90;;
22040;SDS011;11184;52.444;13.578;2023-02-24T16:14:15;11.07;;;5.80;;
22040;SDS011;11184;52.444;13.578;2023-02-24T16:17:05;17.25;;;14.10;;
22040;SDS011;11184;52.444;13.578;2023-02-24T16:19:51;6.60;;;5.47;;
22040;SDS011;11184;52.444;13.578;2023-02-24T16:22:38;3.50;;;3.20;;
22040;SDS011;11184;52.444;13.578;2023-02-24T16:25:22;4.13;;;3.80;;
22040;SDS011;11184;52.444;13.578;2023-02-24T16:28:14;8.45;;;7.57;;
22040;SDS011;11184;52.444;13.578;2023-02-24T16:30:59;22.23;;;17.52;;
22040;SDS011;11184;52.444;13.578;2023-02-24T16:33:44;12.80;;;10.23;;
22040;SDS011;11184;52.444;13.578;2023-02-24T16:36:29;9.13;;;8.18;;
22040;SDS011;11184;52.444;13.578;2023-02-24T16:39:13;9.65;;;6.18;;
22040;SDS011;11184;52.444;13.578;2023-02-24T16:41:58;7.57;;;6.88;;
22040;SDS011;11184;52.444;13.578;2023-02-24T16:44:48;5.03;;;4.53;;
22040;SDS011;11184;52.444;13.578;2023-02-24T16:47:33;6.50;;;5.90;;
22040;SDS011;11184;52.444;13.578;2023-02-24T16:50:20;6.60;;;6.00;;
22040;SDS011;11184;52.444;13.578;2023-02-24T16:53:05;5.95;;;5.45;;
22040;SDS011;11184;52.444;13.578;2023-02-24T16:55:50;8.93;;;7.97;;
22040;SDS011;11184;52.444;13.578;2023-02-24T16:58:35;11.43;;;10.38;;
22040;SDS011;11184;52.444;13.578;2023-02-24T17:01:19;9.52;;;8.38;;
22040;SDS011;11184;52.444;13.578;2023-02-24T17:04:05;8.77;;;7.05;;
22040;SDS011;11184;52.444;13.578;2023-02-24T17:06:52;10.73;;;9.65;;
22040;SDS011;11184;52.444;13.578;2023-02-24T17:09:36;8.18;;;7.57;;
22040;SDS011;11184;52.444;13.578;2023-02-24T17:12:21;8.57;;;7.70;;
22040;SDS011;11184;52.444;13.578;2023-02-24T17:15:06;9.18;;;8.35;;
22040;SDS011;11184;52.444;13.578;2023-02-24T17:17:51;8.20;;;7.50;;
22040;SDS011;11184;52.444;13.578;2023-02-24T17:20:39;7.80;;;6.82;;
22040;SDS011;11184;52.444;13.578;2023-02-24T17:23:24;8.35;;;7.60;;
22040;SDS011;11184;52.444;13.578;2023-02-24T17:26:12;11.60;;;8.25;;
22040;SDS011;11184;52.444;13.578;2023-02-24T17:28:57;10.32;;;9.35;;
22040;SDS011;11184;52.444;13.578;2023-02-24T17:31:41;10.05;;;8.32;;
22040;SDS011;11184;52.444;13.578;2023-02-24T17:34:26;9.90;;;8.60;;
22040;SDS011;11184;52.444;13.578;2023-02-24T17:37:11;10.27;;;9.43;;
22040;SDS011;11184;52.444;13.578;2023-02-24T17:39:55;10.25;;;9.45;;
22040;SDS011;11184;52.444;13.578;2023-02-24T17:42:40;10.45;;;9.45;;
22040;SDS011;11184;52.444;13.578;2023-02-24T17:45:25;10.65;;;9.70;;
22040;SDS011;11184;52.444;13.578;2023-02-24T17:48:10;12.70;;;11.30;;
22040;SDS011;11184;52.444;13.578;2023-02-24T17:50:55;10.13;;;9.43;;
22040;SDS011;11184;52.444;13.578;2023-02-24T17:53:40;11.27;;;10.27;;